sensor_id;sensor_type;location;lat;lon;timestamp;P1;durP1;ratioP1;P2;durP2;ratioP2
8171;SDS011;4127;47.908;10.850;2022-07-09T00:01:02;1.02;;;0.98;;
8171;SDS011;4127;47.908;10.850;2022-07-09T00:03:29;0.60;;;0.60;;
8171;SDS011;4127;47.908;10.850;2022-07-09T00:05:56;1.00;;;1.00;;
8171;SDS011;4127;47.908;10.850;2022-07-09T00:08:23;0.60;;;0.60;;
8171;SDS011;4127;47.908;10.850;2022-07-09T00:10:50;0.98;;;0.93;;
8171;SDS011;4127;47.908;10.850;2022-07-09T00:13:17;0.80;;;0.80;;
8171;SDS011;4127;47.908;10.850;2022-07-09T00:15:43;1.13;;;0.60;;
8171;SDS011;4127;47.908;10.850;2022-07-09T00:18:11;0.85;;;0.85;;
8171;SDS011;4127;47.908;10.850;2022-07-09T00:20:38;0.70;;;0.70;;
8171;SDS011;4127;47.908;10.850;2022-07-09T00:23:04;0.80;;;0.80;;
8171;SDS011;4127;47.908;10.850;2022-07-09T00:25:31;0.50;;;0.50;;
8171;SDS011;4127;47.908;10.850;2022-07-09T00:27:58;0.70;;;0.70;;
8171;SDS011;4127;47.908;10.850;2022-07-09T00:30:25;0.70;;;0.70;;
8171;SDS011;4127;47.908;10.850;2022-07-09T00:32:52;0.75;;;0.68;;
8171;SDS011;4127;47.908;10.850;2022-07-09T00:35:19;0.88;;;0.82;;
8171;SDS011;4127;47.908;10.850;2022-07-09T00:37:45;0.47;;;0.47;;
8171;SDS011;4127;47.908;10.850;2022-07-09T00:40:12;0.70;;;0.70;;
8171;SDS011;4127;47.908;10.850;2022-07-09T00:42:39;0.70;;;0.70;;
8171;SDS011;4127;47.908;10.850;2022-07-09T00:45:06;0.93;;;0.80;;
8171;SDS011;4127;47.908;10.850;2022-07-09T00:47:33;0.70;;;0.70;;
8171;SDS011;4127;47.908;10.850;2022-07-09T00:50:00;0.80;;;0.80;;
8171;SDS011;4127;47.908;10.850;2022-07-09T00:52:27;0.70;;;0.70;;
8171;SDS011;4127;47.908;10.850;2022-07-09T00:54:56;0.77;;;0.70;;
8171;SDS011;4127;47.908;10.850;2022-07-09T00:57:27;0.80;;;0.80;;
8171;SDS011;4127;47.908;10.850;2022-07-09T00:59:56;0.80;;;0.80;;
8171;SDS011;4127;47.908;10.850;2022-07-09T01:02:24;0.65;;;0.65;;
8171;SDS011;4127;47.908;10.850;2022-07-09T01:04:51;0.80;;;0.80;;
8171;SDS011;4127;47.908;10.850;2022-07-09T01:07:18;0.60;;;0.60;;
8171;SDS011;4127;47.908;10.850;2022-07-09T01:09:45;0.50;;;0.50;;
8171;SDS011;4127;47.908;10.850;2022-07-09T01:12:12;0.60;;;0.60;;
8171;SDS011;4127;47.908;10.850;2022-07-09T01:14:38;0.60;;;0.60;;
8171;SDS011;4127;47.908;10.850;2022-07-09T01:17:05;0.80;;;0.80;;
8171;SDS011;4127;47.908;10.850;2022-07-09T01:19:33;0.60;;;0.60;;
8171;SDS011;4127;47.908;10.850;2022-07-09T01:22:00;0.85;;;0.85;;
8171;SDS011;4127;47.908;10.850;2022-07-09T01:24:32;0.73;;;0.73;;
8171;SDS011;4127;47.908;10.850;2022-07-09T01:26:59;0.70;;;0.60;;
8171;SDS011;4127;47.908;10.850;2022-07-09T01:29:27;0.60;;;0.60;;
8171;SDS011;4127;47.908;10.850;2022-07-09T01:31:54;0.70;;;0.70;;
8171;SDS011;4127;47.908;10.850;2022-07-09T01:34:20;0.63;;;0.63;;
8171;SDS011;4127;47.908;10.850;2022-07-09T01:36:47;0.90;;;0.90;;
8171;SDS011;4127;47.908;10.850;2022-07-09T01:39:14;0.80;;;0.80;;
8171;SDS011;4127;47.908;10.850;2022-07-09T01:41:41;0.60;;;0.60;;
8171;SDS011;4127;47.908;10.850;2022-07-09T01:44:08;1.02;;;0.88;;
8171;SDS011;4127;47.908;10.850;2022-07-09T01:46:35;0.60;;;0.60;;
8171;SDS011;4127;47.908;10.850;2022-07-09T01:49:02;0.80;;;0.80;;
8171;SDS011;4127;47.908;10.850;2022-07-09T01:51:30;0.80;;;0.80;;
8171;SDS011;4127;47.908;10.850;2022-07-09T01:54:00;0.60;;;0.60;;
8171;SDS011;4127;47.908;10.850;2022-07-09T01:56:28;0.70;;;0.70;;
8171;SDS011;4127;47.908;10.850;2022-07-09T01:58:55;0.60;;;0.60;;
8171;SDS011;4127;47.908;10.850;2022-07-09T02:01:21;0.70;;;0.70;;
8171;SDS011;4127;47.908;10.850;2022-07-09T02:03:48;0.70;;;0.70;;
8171;SDS011;4127;47.908;10.850;2022-07-09T02:17:03;0.60;;;0.60;;
8171;SDS011;4127;47.908;10.850;2022-07-09T02:19:30;0.52;;;0.52;;
8171;SDS011;4127;47.908;10.850;2022-07-09T02:21:57;0.75;;;0.75;;
8171;SDS011;4127;47.908;10.850;2022-07-09T02:24:24;0.68;;;0.68;;
8171;SDS011;4127;47.908;10.850;2022-07-09T02:26:51;0.85;;;0.85;;
8171;SDS011;4127;47.908;10.850;2022-07-09T02:29:18;0.73;;;0.73;;
8171;SDS011;4127;47.908;10.850;2022-07-09T02:31:44;0.60;;;0.60;;
8171;SDS011;4127;47.908;10.850;2022-07-09T02:34:11;0.60;;;0.60;;
8171;SDS011;4127;47.908;10.850;2022-07-09T02:36:38;0.63;;;0.63;;
8171;SDS011;4127;47.908;10.850;2022-07-09T02:39:05;0.60;;;0.60;;
8171;SDS011;4127;47.908;10.850;2022-07-09T02:41:31;0.60;;;0.60;;
8171;SDS011;4127;47.908;10.850;2022-07-09T02:43:58;0.73;;;0.73;;
8171;SDS011;4127;47.908;10.850;2022-07-09T02:46:25;0.60;;;0.60;;
8171;SDS011;4127;47.908;10.850;2022-07-09T02:48:52;0.50;;;0.50;;
8171;SDS011;4127;47.908;10.850;2022-07-09T02:51:19;0.57;;;0.57;;
8171;SDS011;4127;47.908;10.850;2022-07-09T02:53:45;0.50;;;0.50;;
8171;SDS011;4127;47.908;10.850;2022-07-09T02:56:12;0.60;;;0.60;;
8171;SDS011;4127;47.908;10.850;2022-07-09T02:58:39;0.70;;;0.70;;
8171;SDS011;4127;47.908;10.850;2022-07-09T03:01:06;0.80;;;0.68;;
8171;SDS011;4127;47.908;10.850;2022-07-09T03:03:33;0.70;;;0.70;;
8171;SDS011;4127;47.908;10.850;2022-07-09T03:06:03;0.68;;;0.68;;
8171;SDS011;4127;47.908;10.850;2022-07-09T03:08:31;0.73;;;0.73;;
8171;SDS011;4127;47.908;10.850;2022-07-09T03:10:59;0.60;;;0.60;;
8171;SDS011;4127;47.908;10.850;2022-07-09T03:13:26;0.70;;;0.70;;
8171;SDS011;4127;47.908;10.850;2022-07-09T03:15:52;0.60;;;0.60;;
8171;SDS011;4127;47.908;10.850;2022-07-09T03:18:19;0.60;;;0.60;;
8171;SDS011;4127;47.908;10.850;2022-07-09T03:20:47;0.60;;;0.60;;
8171;SDS011;4127;47.908;10.850;2022-07-09T03:23:14;0.63;;;0.63;;
8171;SDS011;4127;47.908;10.850;2022-07-09T03:25:40;0.55;;;0.55;;
8171;SDS011;4127;47.908;10.850;2022-07-09T03:28:07;0.60;;;0.60;;
8171;SDS011;4127;47.908;10.850;2022-07-09T03:30:34;0.70;;;0.70;;
8171;SDS011;4127;47.908;10.850;2022-07-09T03:33:01;0.77;;;0.77;;
8171;SDS011;4127;47.908;10.850;2022-07-09T03:35:28;0.57;;;0.57;;
8171;SDS011;4127;47.908;10.850;2022-07-09T03:37:54;0.70;;;0.70;;
8171;SDS011;4127;47.908;10.850;2022-07-09T03:40:21;0.40;;;0.40;;
8171;SDS011;4127;47.908;10.850;2022-07-09T03:42:48;0.70;;;0.70;;
8171;SDS011;4127;47.908;10.850;2022-07-09T03:45:15;0.80;;;0.80;;
8171;SDS011;4127;47.908;10.850;2022-07-09T03:47:42;0.60;;;0.60;;
8171;SDS011;4127;47.908;10.850;2022-07-09T03:50:09;0.70;;;0.70;;
8171;SDS011;4127;47.908;10.850;2022-07-09T03:52:35;0.57;;;0.57;;
8171;SDS011;4127;47.908;10.850;2022-07-09T03:55:02;0.70;;;0.70;;
8171;SDS011;4127;47.908;10.850;2022-07-09T03:57:29;0.60;;;0.60;;
8171;SDS011;4127;47.908;10.850;2022-07-09T03:59:56;0.40;;;0.40;;
8171;SDS011;4127;47.908;10.850;2022-07-09T04:02:23;0.60;;;0.60;;
8171;SDS011;4127;47.908;10.850;2022-07-09T04:04:50;0.70;;;0.70;;
8171;SDS011;4127;47.908;10.850;2022-07-09T04:07:17;0.70;;;0.70;;
8171;SDS011;4127;47.908;10.850;2022-07-09T04:09:43;0.60;;;0.60;;
8171;SDS011;4127;47.908;10.850;2022-07-09T04:12:10;0.60;;;0.60;;
8171;SDS011;4127;47.908;10.850;2022-07-09T04:14:37;0.60;;;0.60;;
8171;SDS011;4127;47.908;10.850;2022-07-09T04:17:04;0.60;;;0.60;;
8171;SDS011;4127;47.908;10.850;2022-07-09T04:19:32;0.50;;;0.50;;
8171;SDS011;4127;47.908;10.850;2022-07-09T04:21:59;0.70;;;0.70;;
8171;SDS011;4127;47.908;10.850;2022-07-09T04:24:26;0.60;;;0.60;;
8171;SDS011;4127;47.908;10.850;2022-07-09T04:26:53;0.57;;;0.57;;
8171;SDS011;4127;47.908;10.850;2022-07-09T04:29:19;0.65;;;0.65;;
8171;SDS011;4127;47.908;10.850;2022-07-09T04:31:46;0.65;;;0.65;;
8171;SDS011;4127;47.908;10.850;2022-07-09T04:34:13;0.77;;;0.77;;
8171;SDS011;4127;47.908;10.850;2022-07-09T04:36:40;0.70;;;0.70;;
8171;SDS011;4127;47.908;10.850;2022-07-09T04:39:06;0.50;;;0.50;;
8171;SDS011;4127;47.908;10.850;2022-07-09T04:41:33;0.70;;;0.70;;
8171;SDS011;4127;47.908;10.850;2022-07-09T04:44:00;0.80;;;0.80;;
8171;SDS011;4127;47.908;10.850;2022-07-09T04:46:27;0.70;;;0.70;;
8171;SDS011;4127;47.908;10.850;2022-07-09T04:48:57;0.85;;;0.77;;
8171;SDS011;4127;47.908;10.850;2022-07-09T04:51:24;0.73;;;0.73;;
8171;SDS011;4127;47.908;10.850;2022-07-09T04:53:51;0.57;;;0.57;;
8171;SDS011;4127;47.908;10.850;2022-07-09T04:56:17;0.70;;;0.70;;
8171;SDS011;4127;47.908;10.850;2022-07-09T04:58:44;0.60;;;0.60;;
8171;SDS011;4127;47.908;10.850;2022-07-09T05:01:21;0.77;;;0.77;;
8171;SDS011;4127;47.908;10.850;2022-07-09T05:03:48;0.68;;;0.68;;
8171;SDS011;4127;47.908;10.850;2022-07-09T05:06:16;0.50;;;0.50;;
8171;SDS011;4127;47.908;10.850;2022-07-09T05:08:44;0.80;;;0.80;;
8171;SDS011;4127;47.908;10.850;2022-07-09T05:11:11;0.70;;;0.70;;
8171;SDS011;4127;47.908;10.850;2022-07-09T05:13:43;0.73;;;0.73;;
8171;SDS011;4127;47.908;10.850;2022-07-09T05:16:12;0.70;;;0.70;;
8171;SDS011;4127;47.908;10.850;2022-07-09T05:18:39;0.70;;;0.70;;
8171;SDS011;4127;47.908;10.850;2022-07-09T05:21:06;0.82;;;0.82;;
8171;SDS011;4127;47.908;10.850;2022-07-09T05:23:33;0.80;;;0.80;;
8171;SDS011;4127;47.908;10.850;2022-07-09T05:26:00;0.70;;;0.70;;
8171;SDS011;4127;47.908;10.850;2022-07-09T05:28:27;0.60;;;0.60;;
8171;SDS011;4127;47.908;10.850;2022-07-09T05:30:53;0.80;;;0.80;;
8171;SDS011;4127;47.908;10.850;2022-07-09T05:33:40;0.80;;;0.80;;
8171;SDS011;4127;47.908;10.850;2022-07-09T05:36:07;0.70;;;0.70;;
8171;SDS011;4127;47.908;10.850;2022-07-09T05:38:34;0.80;;;0.80;;
8171;SDS011;4127;47.908;10.850;2022-07-09T05:41:02;0.70;;;0.70;;
8171;SDS011;4127;47.908;10.850;2022-07-09T05:43:28;0.80;;;0.80;;
8171;SDS011;4127;47.908;10.850;2022-07-09T05:45:55;0.70;;;0.70;;
8171;SDS011;4127;47.908;10.850;2022-07-09T05:48:22;1.33;;;0.68;;
8171;SDS011;4127;47.908;10.850;2022-07-09T05:50:49;0.68;;;0.68;;
8171;SDS011;4127;47.908;10.850;2022-07-09T05:53:16;0.80;;;0.80;;
8171;SDS011;4127;47.908;10.850;2022-07-09T05:55:43;0.60;;;0.60;;
8171;SDS011;4127;47.908;10.850;2022-07-09T05:58:10;0.75;;;0.70;;
8171;SDS011;4127;47.908;10.850;2022-07-09T06:00:37;0.80;;;0.80;;
8171;SDS011;4127;47.908;10.850;2022-07-09T06:03:04;0.88;;;0.88;;
8171;SDS011;4127;47.908;10.850;2022-07-09T06:05:31;0.80;;;0.80;;
8171;SDS011;4127;47.908;10.850;2022-07-09T06:07:57;0.60;;;0.60;;
8171;SDS011;4127;47.908;10.850;2022-07-09T06:10:25;0.70;;;0.70;;
8171;SDS011;4127;47.908;10.850;2022-07-09T06:12:52;0.60;;;0.60;;
8171;SDS011;4127;47.908;10.850;2022-07-09T06:15:19;0.70;;;0.70;;
8171;SDS011;4127;47.908;10.850;2022-07-09T06:17:46;0.55;;;0.55;;
8171;SDS011;4127;47.908;10.850;2022-07-09T06:20:13;0.50;;;0.50;;
8171;SDS011;4127;47.908;10.850;2022-07-09T06:22:40;0.52;;;0.52;;
8171;SDS011;4127;47.908;10.850;2022-07-09T06:25:07;0.68;;;0.68;;
8171;SDS011;4127;47.908;10.850;2022-07-09T06:27:35;0.70;;;0.70;;
8171;SDS011;4127;47.908;10.850;2022-07-09T06:30:02;0.65;;;0.65;;
8171;SDS011;4127;47.908;10.850;2022-07-09T06:32:29;0.90;;;0.90;;
8171;SDS011;4127;47.908;10.850;2022-07-09T06:34:56;1.00;;;1.00;;
8171;SDS011;4127;47.908;10.850;2022-07-09T06:37:23;0.75;;;0.75;;
8171;SDS011;4127;47.908;10.850;2022-07-09T06:39:50;0.80;;;0.80;;
8171;SDS011;4127;47.908;10.850;2022-07-09T06:42:18;0.60;;;0.60;;
8171;SDS011;4127;47.908;10.850;2022-07-09T06:44:44;0.85;;;0.85;;
8171;SDS011;4127;47.908;10.850;2022-07-09T06:47:11;0.73;;;0.73;;
8171;SDS011;4127;47.908;10.850;2022-07-09T06:49:39;0.60;;;0.60;;
8171;SDS011;4127;47.908;10.850;2022-07-09T06:52:05;0.70;;;0.70;;
8171;SDS011;4127;47.908;10.850;2022-07-09T06:54:33;0.80;;;0.80;;
8171;SDS011;4127;47.908;10.850;2022-07-09T06:57:01;0.80;;;0.80;;
8171;SDS011;4127;47.908;10.850;2022-07-09T06:59:32;0.80;;;0.80;;
8171;SDS011;4127;47.908;10.850;2022-07-09T07:01:58;0.80;;;0.80;;
8171;SDS011;4127;47.908;10.850;2022-07-09T07:04:25;0.80;;;0.80;;
8171;SDS011;4127;47.908;10.850;2022-07-09T07:06:52;0.60;;;0.60;;
8171;SDS011;4127;47.908;10.850;2022-07-09T07:09:20;0.63;;;0.63;;
8171;SDS011;4127;47.908;10.850;2022-07-09T07:11:49;0.68;;;0.68;;
8171;SDS011;4127;47.908;10.850;2022-07-09T07:14:16;0.80;;;0.80;;
8171;SDS011;4127;47.908;10.850;2022-07-09T07:16:44;0.65;;;0.65;;
8171;SDS011;4127;47.908;10.850;2022-07-09T07:19:11;1.30;;;0.75;;
8171;SDS011;4127;47.908;10.850;2022-07-09T07:21:38;0.80;;;0.80;;
8171;SDS011;4127;47.908;10.850;2022-07-09T07:24:06;1.00;;;0.90;;
8171;SDS011;4127;47.908;10.850;2022-07-09T07:26:33;1.08;;;0.90;;
8171;SDS011;4127;47.908;10.850;2022-07-09T07:29:00;1.00;;;0.90;;
8171;SDS011;4127;47.908;10.850;2022-07-09T07:31:28;0.90;;;0.90;;
8171;SDS011;4127;47.908;10.850;2022-07-09T07:33:54;1.20;;;1.10;;
8171;SDS011;4127;47.908;10.850;2022-07-09T07:36:21;1.80;;;1.02;;
8171;SDS011;4127;47.908;10.850;2022-07-09T07:38:49;1.25;;;1.15;;
8171;SDS011;4127;47.908;10.850;2022-07-09T07:41:15;1.20;;;1.10;;
8171;SDS011;4127;47.908;10.850;2022-07-09T07:43:43;1.30;;;1.20;;
8171;SDS011;4127;47.908;10.850;2022-07-09T07:46:10;1.02;;;1.00;;
8171;SDS011;4127;47.908;10.850;2022-07-09T07:48:38;1.90;;;1.10;;
8171;SDS011;4127;47.908;10.850;2022-07-09T07:51:07;1.08;;;1.00;;
8171;SDS011;4127;47.908;10.850;2022-07-09T07:53:35;1.15;;;1.00;;
8171;SDS011;4127;47.908;10.850;2022-07-09T07:56:03;1.20;;;1.08;;
8171;SDS011;4127;47.908;10.850;2022-07-09T07:58:30;0.98;;;0.90;;
8171;SDS011;4127;47.908;10.850;2022-07-09T08:00:59;1.77;;;1.00;;
8171;SDS011;4127;47.908;10.850;2022-07-09T08:03:26;0.90;;;0.90;;
8171;SDS011;4127;47.908;10.850;2022-07-09T08:05:58;1.20;;;1.10;;
8171;SDS011;4127;47.908;10.850;2022-07-09T08:08:24;1.40;;;1.05;;
8171;SDS011;4127;47.908;10.850;2022-07-09T08:10:51;1.30;;;1.10;;
8171;SDS011;4127;47.908;10.850;2022-07-09T08:13:18;1.10;;;1.00;;
8171;SDS011;4127;47.908;10.850;2022-07-09T08:15:45;1.27;;;1.17;;
8171;SDS011;4127;47.908;10.850;2022-07-09T08:18:12;1.20;;;1.10;;
8171;SDS011;4127;47.908;10.850;2022-07-09T08:20:40;1.10;;;1.00;;
8171;SDS011;4127;47.908;10.850;2022-07-09T08:23:08;0.93;;;0.90;;
8171;SDS011;4127;47.908;10.850;2022-07-09T08:25:35;0.90;;;0.90;;
8171;SDS011;4127;47.908;10.850;2022-07-09T08:28:02;1.80;;;0.90;;
8171;SDS011;4127;47.908;10.850;2022-07-09T08:30:29;0.90;;;0.90;;
8171;SDS011;4127;47.908;10.850;2022-07-09T08:32:56;0.82;;;0.80;;
8171;SDS011;4127;47.908;10.850;2022-07-09T08:35:23;0.98;;;0.93;;
8171;SDS011;4127;47.908;10.850;2022-07-09T08:37:51;1.10;;;1.00;;
8171;SDS011;4127;47.908;10.850;2022-07-09T08:40:20;1.00;;;0.90;;
8171;SDS011;4127;47.908;10.850;2022-07-09T08:42:48;1.00;;;0.90;;
8171;SDS011;4127;47.908;10.850;2022-07-09T08:45:16;1.10;;;1.00;;
8171;SDS011;4127;47.908;10.850;2022-07-09T08:47:43;1.50;;;1.10;;
8171;SDS011;4127;47.908;10.850;2022-07-09T08:50:11;1.00;;;0.95;;
8171;SDS011;4127;47.908;10.850;2022-07-09T08:52:38;1.20;;;1.10;;
8171;SDS011;4127;47.908;10.850;2022-07-09T08:55:07;1.00;;;0.90;;
8171;SDS011;4127;47.908;10.850;2022-07-09T08:57:34;1.00;;;0.95;;
8171;SDS011;4127;47.908;10.850;2022-07-09T09:00:01;1.10;;;1.00;;
8171;SDS011;4127;47.908;10.850;2022-07-09T09:02:36;0.82;;;0.82;;
8171;SDS011;4127;47.908;10.850;2022-07-09T09:05:07;0.95;;;0.95;;
8171;SDS011;4127;47.908;10.850;2022-07-09T09:07:35;0.80;;;0.80;;
8171;SDS011;4127;47.908;10.850;2022-07-09T09:10:02;0.85;;;0.85;;
8171;SDS011;4127;47.908;10.850;2022-07-09T09:12:29;0.80;;;0.80;;
8171;SDS011;4127;47.908;10.850;2022-07-09T09:14:56;1.08;;;0.98;;
8171;SDS011;4127;47.908;10.850;2022-07-09T09:17:23;1.08;;;0.98;;
8171;SDS011;4127;47.908;10.850;2022-07-09T09:19:50;1.08;;;0.98;;
8171;SDS011;4127;47.908;10.850;2022-07-09T09:22:17;0.85;;;0.82;;
8171;SDS011;4127;47.908;10.850;2022-07-09T09:24:48;0.90;;;0.90;;
8171;SDS011;4127;47.908;10.850;2022-07-09T09:27:16;1.40;;;1.17;;
8171;SDS011;4127;47.908;10.850;2022-07-09T09:29:49;0.77;;;0.77;;
8171;SDS011;4127;47.908;10.850;2022-07-09T09:32:20;0.75;;;0.75;;
8171;SDS011;4127;47.908;10.850;2022-07-09T09:34:50;0.82;;;0.82;;
8171;SDS011;4127;47.908;10.850;2022-07-09T09:37:27;0.73;;;0.73;;
8171;SDS011;4127;47.908;10.850;2022-07-09T09:39:58;1.10;;;1.00;;
8171;SDS011;4127;47.908;10.850;2022-07-09T09:42:24;0.88;;;0.88;;
8171;SDS011;4127;47.908;10.850;2022-07-09T09:44:55;0.70;;;0.70;;
8171;SDS011;4127;47.908;10.850;2022-07-09T09:47:25;0.90;;;0.90;;
8171;SDS011;4127;47.908;10.850;2022-07-09T09:49:53;0.90;;;0.90;;
8171;SDS011;4127;47.908;10.850;2022-07-09T09:52:22;0.80;;;0.80;;
8171;SDS011;4127;47.908;10.850;2022-07-09T09:54:50;0.77;;;0.77;;
8171;SDS011;4127;47.908;10.850;2022-07-09T09:57:18;0.90;;;0.90;;
8171;SDS011;4127;47.908;10.850;2022-07-09T09:59:50;0.90;;;0.90;;
8171;SDS011;4127;47.908;10.850;2022-07-09T10:02:18;1.02;;;0.93;;
8171;SDS011;4127;47.908;10.850;2022-07-09T10:04:46;0.75;;;0.75;;
8171;SDS011;4127;47.908;10.850;2022-07-09T10:07:14;1.02;;;0.70;;
8171;SDS011;4127;47.908;10.850;2022-07-09T10:09:51;1.48;;;0.98;;
8171;SDS011;4127;47.908;10.850;2022-07-09T10:12:30;1.00;;;1.00;;
8171;SDS011;4127;47.908;10.850;2022-07-09T10:14:59;0.80;;;0.80;;
8171;SDS011;4127;47.908;10.850;2022-07-09T10:17:26;0.80;;;0.80;;
8171;SDS011;4127;47.908;10.850;2022-07-09T10:19:57;0.85;;;0.85;;
8171;SDS011;4127;47.908;10.850;2022-07-09T10:22:37;0.70;;;0.70;;
8171;SDS011;4127;47.908;10.850;2022-07-09T10:25:08;0.90;;;0.90;;
8171;SDS011;4127;47.908;10.850;2022-07-09T10:27:41;1.15;;;1.02;;
8171;SDS011;4127;47.908;10.850;2022-07-09T10:30:28;0.80;;;0.80;;
8171;SDS011;4127;47.908;10.850;2022-07-09T10:33:10;0.60;;;0.60;;
8171;SDS011;4127;47.908;10.850;2022-07-09T10:35:39;0.75;;;0.75;;
8171;SDS011;4127;47.908;10.850;2022-07-09T10:38:07;0.70;;;0.70;;
8171;SDS011;4127;47.908;10.850;2022-07-09T10:40:37;0.70;;;0.70;;
8171;SDS011;4127;47.908;10.850;2022-07-09T10:43:12;0.73;;;0.73;;
8171;SDS011;4127;47.908;10.850;2022-07-09T10:45:40;1.23;;;0.80;;
8171;SDS011;4127;47.908;10.850;2022-07-09T10:48:12;1.33;;;0.80;;
8171;SDS011;4127;47.908;10.850;2022-07-09T10:50:43;0.70;;;0.70;;
8171;SDS011;4127;47.908;10.850;2022-07-09T10:53:12;0.80;;;0.80;;
8171;SDS011;4127;47.908;10.850;2022-07-09T10:55:42;0.70;;;0.68;;
8171;SDS011;4127;47.908;10.850;2022-07-09T10:58:17;0.75;;;0.75;;
8171;SDS011;4127;47.908;10.850;2022-07-09T11:00:44;0.63;;;0.63;;
8171;SDS011;4127;47.908;10.850;2022-07-09T11:03:23;0.60;;;0.60;;
8171;SDS011;4127;47.908;10.850;2022-07-09T11:05:51;0.68;;;0.63;;
8171;SDS011;4127;47.908;10.850;2022-07-09T11:08:18;0.70;;;0.70;;
8171;SDS011;4127;47.908;10.850;2022-07-09T11:10:45;0.63;;;0.63;;
8171;SDS011;4127;47.908;10.850;2022-07-09T11:13:16;0.65;;;0.65;;
8171;SDS011;4127;47.908;10.850;2022-07-09T11:15:42;0.70;;;0.70;;
8171;SDS011;4127;47.908;10.850;2022-07-09T11:18:11;0.80;;;0.80;;
8171;SDS011;4127;47.908;10.850;2022-07-09T11:20:42;0.70;;;0.70;;
8171;SDS011;4127;47.908;10.850;2022-07-09T11:23:15;0.60;;;0.60;;
8171;SDS011;4127;47.908;10.850;2022-07-09T11:25:43;0.75;;;0.70;;
8171;SDS011;4127;47.908;10.850;2022-07-09T11:28:19;0.70;;;0.70;;
8171;SDS011;4127;47.908;10.850;2022-07-09T11:30:57;0.68;;;0.68;;
8171;SDS011;4127;47.908;10.850;2022-07-09T11:33:33;0.65;;;0.65;;
8171;SDS011;4127;47.908;10.850;2022-07-09T11:36:21;0.77;;;0.63;;
8171;SDS011;4127;47.908;10.850;2022-07-09T11:38:51;0.70;;;0.70;;
8171;SDS011;4127;47.908;10.850;2022-07-09T11:41:19;0.60;;;0.60;;
8171;SDS011;4127;47.908;10.850;2022-07-09T11:43:49;0.60;;;0.60;;
8171;SDS011;4127;47.908;10.850;2022-07-09T11:46:17;0.47;;;0.47;;
8171;SDS011;4127;47.908;10.850;2022-07-09T11:48:52;0.60;;;0.60;;
8171;SDS011;4127;47.908;10.850;2022-07-09T11:51:26;0.60;;;0.60;;
8171;SDS011;4127;47.908;10.850;2022-07-09T11:54:00;0.80;;;0.80;;
8171;SDS011;4127;47.908;10.850;2022-07-09T11:56:39;0.60;;;0.60;;
8171;SDS011;4127;47.908;10.850;2022-07-09T11:59:06;0.70;;;0.70;;
8171;SDS011;4127;47.908;10.850;2022-07-09T12:01:33;0.60;;;0.60;;
8171;SDS011;4127;47.908;10.850;2022-07-09T12:04:01;0.68;;;0.68;;
8171;SDS011;4127;47.908;10.850;2022-07-09T12:06:28;0.50;;;0.50;;
8171;SDS011;4127;47.908;10.850;2022-07-09T12:08:59;0.63;;;0.63;;
8171;SDS011;4127;47.908;10.850;2022-07-09T12:11:30;0.70;;;0.70;;
8171;SDS011;4127;47.908;10.850;2022-07-09T12:13:57;0.60;;;0.60;;
8171;SDS011;4127;47.908;10.850;2022-07-09T12:16:24;0.57;;;0.57;;
8171;SDS011;4127;47.908;10.850;2022-07-09T12:18:51;0.70;;;0.70;;
8171;SDS011;4127;47.908;10.850;2022-07-09T12:21:18;0.47;;;0.47;;
8171;SDS011;4127;47.908;10.850;2022-07-09T12:23:45;0.52;;;0.52;;
8171;SDS011;4127;47.908;10.850;2022-07-09T12:26:12;0.73;;;0.63;;
8171;SDS011;4127;47.908;10.850;2022-07-09T12:28:39;0.47;;;0.47;;
8171;SDS011;4127;47.908;10.850;2022-07-09T12:31:06;0.70;;;0.70;;
8171;SDS011;4127;47.908;10.850;2022-07-09T12:33:33;0.60;;;0.60;;
8171;SDS011;4127;47.908;10.850;2022-07-09T12:36:00;0.70;;;0.70;;
8171;SDS011;4127;47.908;10.850;2022-07-09T12:38:28;0.75;;;0.75;;
8171;SDS011;4127;47.908;10.850;2022-07-09T12:40:55;0.50;;;0.50;;
8171;SDS011;4127;47.908;10.850;2022-07-09T12:43:22;0.50;;;0.50;;
8171;SDS011;4127;47.908;10.850;2022-07-09T12:45:49;0.70;;;0.70;;
8171;SDS011;4127;47.908;10.850;2022-07-09T12:48:15;0.50;;;0.50;;
8171;SDS011;4127;47.908;10.850;2022-07-09T12:50:42;0.43;;;0.43;;
8171;SDS011;4127;47.908;10.850;2022-07-09T12:53:09;0.50;;;0.50;;
8171;SDS011;4127;47.908;10.850;2022-07-09T12:55:35;0.60;;;0.60;;
8171;SDS011;4127;47.908;10.850;2022-07-09T12:58:22;0.50;;;0.50;;
8171;SDS011;4127;47.908;10.850;2022-07-09T13:00:49;0.60;;;0.60;;
8171;SDS011;4127;47.908;10.850;2022-07-09T13:03:16;0.52;;;0.52;;
8171;SDS011;4127;47.908;10.850;2022-07-09T13:05:43;0.50;;;0.50;;
8171;SDS011;4127;47.908;10.850;2022-07-09T13:08:09;0.60;;;0.60;;
8171;SDS011;4127;47.908;10.850;2022-07-09T13:10:36;0.60;;;0.60;;
8171;SDS011;4127;47.908;10.850;2022-07-09T13:13:03;0.68;;;0.68;;
8171;SDS011;4127;47.908;10.850;2022-07-09T13:15:29;0.60;;;0.60;;
8171;SDS011;4127;47.908;10.850;2022-07-09T13:17:57;0.50;;;0.50;;
8171;SDS011;4127;47.908;10.850;2022-07-09T13:20:24;0.70;;;0.70;;
8171;SDS011;4127;47.908;10.850;2022-07-09T13:22:50;0.57;;;0.57;;
8171;SDS011;4127;47.908;10.850;2022-07-09T13:25:17;0.52;;;0.52;;
8171;SDS011;4127;47.908;10.850;2022-07-09T13:27:44;0.70;;;0.70;;
8171;SDS011;4127;47.908;10.850;2022-07-09T13:30:11;0.50;;;0.50;;
8171;SDS011;4127;47.908;10.850;2022-07-09T13:32:38;0.43;;;0.43;;
8171;SDS011;4127;47.908;10.850;2022-07-09T13:35:05;0.70;;;0.70;;
8171;SDS011;4127;47.908;10.850;2022-07-09T13:37:32;0.68;;;0.68;;
8171;SDS011;4127;47.908;10.850;2022-07-09T13:39:59;0.52;;;0.52;;
8171;SDS011;4127;47.908;10.850;2022-07-09T13:42:26;0.60;;;0.60;;
8171;SDS011;4127;47.908;10.850;2022-07-09T13:44:53;0.57;;;0.57;;
8171;SDS011;4127;47.908;10.850;2022-07-09T13:47:20;0.65;;;0.65;;
8171;SDS011;4127;47.908;10.850;2022-07-09T13:49:46;0.70;;;0.70;;
8171;SDS011;4127;47.908;10.850;2022-07-09T13:52:13;0.50;;;0.50;;
8171;SDS011;4127;47.908;10.850;2022-07-09T13:54:40;0.40;;;0.40;;
8171;SDS011;4127;47.908;10.850;2022-07-09T13:57:07;0.43;;;0.43;;
8171;SDS011;4127;47.908;10.850;2022-07-09T13:59:34;0.70;;;0.70;;
8171;SDS011;4127;47.908;10.850;2022-07-09T14:02:01;0.55;;;0.55;;
8171;SDS011;4127;47.908;10.850;2022-07-09T14:04:28;0.75;;;0.75;;
8171;SDS011;4127;47.908;10.850;2022-07-09T14:06:55;0.60;;;0.60;;
8171;SDS011;4127;47.908;10.850;2022-07-09T14:09:22;0.60;;;0.60;;
8171;SDS011;4127;47.908;10.850;2022-07-09T14:11:49;0.70;;;0.70;;
8171;SDS011;4127;47.908;10.850;2022-07-09T14:14:15;0.90;;;0.90;;
8171;SDS011;4127;47.908;10.850;2022-07-09T14:16:42;0.73;;;0.73;;
8171;SDS011;4127;47.908;10.850;2022-07-09T14:19:10;0.52;;;0.52;;
8171;SDS011;4127;47.908;10.850;2022-07-09T14:21:38;0.80;;;0.80;;
8171;SDS011;4127;47.908;10.850;2022-07-09T14:24:11;0.80;;;0.80;;
8171;SDS011;4127;47.908;10.850;2022-07-09T14:26:38;0.80;;;0.80;;
8171;SDS011;4127;47.908;10.850;2022-07-09T14:29:07;0.55;;;0.55;;
8171;SDS011;4127;47.908;10.850;2022-07-09T14:31:34;0.75;;;0.75;;
8171;SDS011;4127;47.908;10.850;2022-07-09T14:34:01;1.05;;;0.95;;
8171;SDS011;4127;47.908;10.850;2022-07-09T14:36:28;0.68;;;0.68;;
8171;SDS011;4127;47.908;10.850;2022-07-09T14:38:55;0.80;;;0.80;;
8171;SDS011;4127;47.908;10.850;2022-07-09T14:41:22;0.70;;;0.70;;
8171;SDS011;4127;47.908;10.850;2022-07-09T14:43:49;0.90;;;0.90;;
8171;SDS011;4127;47.908;10.850;2022-07-09T14:46:16;1.30;;;1.20;;
8171;SDS011;4127;47.908;10.850;2022-07-09T14:48:42;1.00;;;1.00;;
8171;SDS011;4127;47.908;10.850;2022-07-09T14:51:09;0.75;;;0.75;;
8171;SDS011;4127;47.908;10.850;2022-07-09T14:53:36;0.85;;;0.75;;
8171;SDS011;4127;47.908;10.850;2022-07-09T14:56:09;0.80;;;0.80;;
8171;SDS011;4127;47.908;10.850;2022-07-09T14:58:35;0.60;;;0.60;;
8171;SDS011;4127;47.908;10.850;2022-07-09T15:01:03;1.38;;;0.95;;
8171;SDS011;4127;47.908;10.850;2022-07-09T15:03:30;1.10;;;1.00;;
8171;SDS011;4127;47.908;10.850;2022-07-09T15:05:57;1.23;;;1.13;;
8171;SDS011;4127;47.908;10.850;2022-07-09T15:08:24;1.77;;;1.17;;
8171;SDS011;4127;47.908;10.850;2022-07-09T15:10:51;1.20;;;1.10;;
8171;SDS011;4127;47.908;10.850;2022-07-09T15:13:20;1.00;;;0.98;;
8171;SDS011;4127;47.908;10.850;2022-07-09T15:15:47;0.90;;;0.90;;